Elettra — H9AK — position and weather

sailwx.info

Track history (hours):
 
Tides and Currents Weather Stations Pressure Air Temp Water Temp Dewpoint Dewpoint Depression Visibility Wind Speed Wind Dir Waves Ship Positions

Elettra

Last reported at 2015-Nov-21 13:08 UTC. Time now 2016-Feb-08 06:06 UTC.
Position S 26°14' E 153°57'.
Warning: this ship's position is months out of date.

Length 254 m; draft 13.6 m.

Type: Cargo ship. MMSI: 371188000.

Date/timePositionNaut miles runAvg speedWind from/ knotsBaromVisibWave heightAir tempDewpointWater temp
2015-Nov-21 13:08S 26°14' E 153°57'8 8.7
2015-Nov-21 12:13S 26°22' E 153°56'6 8.6
2015-Nov-21 11:31S 26°28' E 153°56'8 8.5
2015-Nov-21 10:33S 26°36' E 153°55'8 8.4
2015-Nov-21 09:33S 26°44' E 153°54'8 8.5
2015-Nov-21 08:33S 26°53' E 153°53'8 8.2
2015-Nov-21 07:33S 27°01' E 153°52'8 8.2
2015-Nov-21 06:33S 27°09' E 153°51'9 8.6
2015-Nov-21 05:33S 27°17' E 153°52'9 8.8
2015-Nov-21 04:34S 27°26' E 153°52'9 8.6
2015-Nov-21 03:33S 27°35' E 153°52'8 8.4
2015-Nov-21 02:33S 27°43' E 153°52'8 8.3
2015-Nov-21 01:33S 27°51' E 153°52'8 8.4
2015-Nov-21 00:33S 27°60' E 153°51'8 8.2
2015-Nov-20 23:32S 28°08' E 153°52'8 8.2
2015-Nov-20 22:33S 28°16' E 153°52'8 7.7
2015-Nov-20 21:33S 28°24' E 153°52'8 7.6
2015-Nov-20 20:33S 28°31' E 153°52'8 7.6
2015-Nov-20 19:33S 28°39' E 153°52'8 7.5
2015-Nov-20 18:33S 28°46' E 153°52'23 7.5
2015-Nov-20 15:33S 29°09' E 153°47'156 8.7
2015-Nov-19 21:33S 31°40' E 153°03'1110.8
2015-Nov-19 20:34S 31°50' E 153°01'1110.6
2015-Nov-19 19:33S 32°00' E 152°57'1110.4
2015-Nov-19 18:31S 32°11' E 152°54'1010.1
2015-Nov-19 17:33S 32°20' E 152°51'10 9.8
2015-Nov-19 16:33S 32°30' E 152°48'9 9.4
2015-Nov-19 15:33S 32°38' E 152°44'9 9.1
2015-Nov-19 14:33S 32°45' E 152°36'9 9.1
2015-Nov-19 13:33S 32°49' E 152°27'9 9.1
2015-Nov-19 12:33S 32°54' E 152°17'10 9.8
2015-Nov-19 11:33S 32°56' E 152°06'1110.9
2015-Nov-19 10:33S 32°57' E 151°53'6 5.4
2015-Nov-19 09:31S 32°55' E 151°47'3 3.0
2015-Nov-19 08:33S 32°53' E 151°45'0 0.0
2015-Nov-19 07:30S 32°53' E 151°45'0 0.0
2015-Nov-19 06:33S 32°53' E 151°45'0 0.0
2015-Nov-19 05:33S 32°53' E 151°45'0 0.0
2015-Nov-19 04:33S 32°53' E 151°45'0 0.0
2015-Nov-19 03:33S 32°53' E 151°45'0 0.0
2015-Nov-19 02:30S 32°53' E 151°45'0 0.0
2015-Nov-19 01:30S 32°53' E 151°45'0 0.0
2015-Nov-19 00:30S 32°53' E 151°45'0 0.0
2015-Nov-18 22:03S 32°53' E 151°45'0 0.0
2015-Nov-18 21:33S 32°53' E 151°45'0 0.0
2015-Nov-18 20:30S 32°53' E 151°45'0 0.0
2015-Nov-18 19:30S 32°53' E 151°45'0 0.0
2015-Nov-18 18:33S 32°53' E 151°45'0 0.0
2015-Nov-18 17:30S 32°53' E 151°45'0 0.0
2015-Nov-18 16:24S 32°53' E 151°45'0 0.0
2015-Nov-18 15:33S 32°53' E 151°45'0 0.0
2015-Nov-18 14:33S 32°53' E 151°45'0 0.0
2015-Nov-18 13:33S 32°53' E 151°45'0 0.0
2015-Nov-18 12:33S 32°53' E 151°45'0 0.0
2015-Nov-18 11:33S 32°53' E 151°45'0 0.0
2015-Nov-18 10:33S 32°53' E 151°45'0 0.0
2015-Nov-18 09:33S 32°53' E 151°45'1 0.6
2015-Nov-18 08:33S 32°53' E 151°45'4 3.9
2015-Nov-18 07:33S 32°55' E 151°50'7 7.2
2015-Nov-18 06:33S 32°58' E 151°57'1211.8
2015-Nov-18 05:33S 32°58' E 152°11'1111.3
2015-Nov-18 04:33S 32°57' E 152°25'1212.2
2015-Nov-18 03:33S 32°46' E 152°32'1413.7
2015-Nov-18 02:33S 32°37' E 152°43'1312.9
2015-Nov-18 01:33S 32°25' E 152°50'1312.8
2015-Nov-18 00:33S 32°12' E 152°53'1313.0
2015-Nov-17 23:33S 31°60' E 152°57'1313.0
2015-Nov-17 22:33S 31°47' E 153°01'5 4.6
2015-Nov-17 21:33S 31°43' E 153°02'24012.6
2015-Nov-17 02:33S 27°47' E 153°52'1413.4
2015-Nov-17 01:30S 27°33' E 153°52'1913.0
2015-Nov-17 00:04S 27°15' E 153°52'612.6
2015-Nov-16 23:33S 27°08' E 153°52'  
Track history (hours):
 
Tides and Currents Weather Stations Pressure Air Temp Water Temp Dewpoint Dewpoint Depression Visibility Wind Speed Wind Dir Waves Ship Positions

Elettra

Last reported at 2015-Nov-21 13:08 UTC. Time now 2016-Feb-08 06:06 UTC.
Position S 26°14' E 153°57'.
Warning: this ship's position is months out of date.

Length 254 m; draft 13.6 m.

Type: Cargo ship. MMSI: 371188000.

Date/timePositionNaut miles runAvg speedWind from/ knotsBaromVisibWave heightAir tempDewpointWater temp
2015-Nov-21 13:08S 26°14' E 153°57'8 8.7
2015-Nov-21 12:13S 26°22' E 153°56'6 8.6
2015-Nov-21 11:31S 26°28' E 153°56'8 8.5
2015-Nov-21 10:33S 26°36' E 153°55'8 8.4
2015-Nov-21 09:33S 26°44' E 153°54'8 8.5
2015-Nov-21 08:33S 26°53' E 153°53'8 8.2
2015-Nov-21 07:33S 27°01' E 153°52'8 8.2
2015-Nov-21 06:33S 27°09' E 153°51'9 8.6
2015-Nov-21 05:33S 27°17' E 153°52'9 8.8
2015-Nov-21 04:34S 27°26' E 153°52'9 8.6
2015-Nov-21 03:33S 27°35' E 153°52'8 8.4
2015-Nov-21 02:33S 27°43' E 153°52'8 8.3
2015-Nov-21 01:33S 27°51' E 153°52'8 8.4
2015-Nov-21 00:33S 27°60' E 153°51'8 8.2
2015-Nov-20 23:32S 28°08' E 153°52'8 8.2
2015-Nov-20 22:33S 28°16' E 153°52'8 7.7
2015-Nov-20 21:33S 28°24' E 153°52'8 7.6
2015-Nov-20 20:33S 28°31' E 153°52'8 7.6
2015-Nov-20 19:33S 28°39' E 153°52'8 7.5
2015-Nov-20 18:33S 28°46' E 153°52'23 7.5
2015-Nov-20 15:33S 29°09' E 153°47'156 8.7
2015-Nov-19 21:33S 31°40' E 153°03'1110.8
2015-Nov-19 20:34S 31°50' E 153°01'1110.6
2015-Nov-19 19:33S 32°00' E 152°57'1110.4
2015-Nov-19 18:31S 32°11' E 152°54'1010.1
2015-Nov-19 17:33S 32°20' E 152°51'10 9.8
2015-Nov-19 16:33S 32°30' E 152°48'9 9.4
2015-Nov-19 15:33S 32°38' E 152°44'9 9.1
2015-Nov-19 14:33S 32°45' E 152°36'9 9.1
2015-Nov-19 13:33S 32°49' E 152°27'9 9.1
2015-Nov-19 12:33S 32°54' E 152°17'10 9.8
2015-Nov-19 11:33S 32°56' E 152°06'1110.9
2015-Nov-19 10:33S 32°57' E 151°53'6 5.4
2015-Nov-19 09:31S 32°55' E 151°47'3 3.0
2015-Nov-19 08:33S 32°53' E 151°45'0 0.0
2015-Nov-19 07:30S 32°53' E 151°45'0 0.0
2015-Nov-19 06:33S 32°53' E 151°45'0 0.0
2015-Nov-19 05:33S 32°53' E 151°45'0 0.0
2015-Nov-19 04:33S 32°53' E 151°45'0 0.0
2015-Nov-19 03:33S 32°53' E 151°45'0 0.0
2015-Nov-19 02:30S 32°53' E 151°45'0 0.0
2015-Nov-19 01:30S 32°53' E 151°45'0 0.0
2015-Nov-19 00:30S 32°53' E 151°45'0 0.0
2015-Nov-18 22:03S 32°53' E 151°45'0 0.0
2015-Nov-18 21:33S 32°53' E 151°45'0 0.0
2015-Nov-18 20:30S 32°53' E 151°45'0 0.0
2015-Nov-18 19:30S 32°53' E 151°45'0 0.0
2015-Nov-18 18:33S 32°53' E 151°45'0 0.0
2015-Nov-18 17:30S 32°53' E 151°45'0 0.0
2015-Nov-18 16:24S 32°53' E 151°45'0 0.0
2015-Nov-18 15:33S 32°53' E 151°45'0 0.0
2015-Nov-18 14:33S 32°53' E 151°45'0 0.0
2015-Nov-18 13:33S 32°53' E 151°45'0 0.0
2015-Nov-18 12:33S 32°53' E 151°45'0 0.0
2015-Nov-18 11:33S 32°53' E 151°45'0 0.0
2015-Nov-18 10:33S 32°53' E 151°45'0 0.0
2015-Nov-18 09:33S 32°53' E 151°45'1 0.6
2015-Nov-18 08:33S 32°53' E 151°45'4 3.9
2015-Nov-18 07:33S 32°55' E 151°50'7 7.2
2015-Nov-18 06:33S 32°58' E 151°57'1211.8
2015-Nov-18 05:33S 32°58' E 152°11'1111.3
2015-Nov-18 04:33S 32°57' E 152°25'1212.2
2015-Nov-18 03:33S 32°46' E 152°32'1413.7
2015-Nov-18 02:33S 32°37' E 152°43'1312.9
2015-Nov-18 01:33S 32°25' E 152°50'1312.8
2015-Nov-18 00:33S 32°12' E 152°53'1313.0
2015-Nov-17 23:33S 31°60' E 152°57'1313.0
2015-Nov-17 22:33S 31°47' E 153°01'5 4.6
2015-Nov-17 21:33S 31°43' E 153°02'24012.6
2015-Nov-17 02:33S 27°47' E 153°52'1413.4
2015-Nov-17 01:30S 27°33' E 153°52'1913.0
2015-Nov-17 00:04S 27°15' E 153°52'612.6
2015-Nov-16 23:33S 27°08' E 153°52'  

Dump ship's entire track history